Time;durP1;ratioP1;P1;durP2;ratioP2;P2;SDS_P1;SDS_P2;PMS_P1;PMS_P2;Temp;Humidity;BMP_temperature;BMP_pressure;BME280_temperature;BME280_humidity;BME280_pressure;Samples;Min_cycle;Max_cycle;Signal;HPM_P1;HPM_P2
2021/11/30 00:01:18;;;;;;;;;;;-0.10;99.90;;;;;;5050994;28;19909;-76
2021/11/30 00:03:43;;;;;;;;;;;-0.10;99.90;;;;;;5050802;28;19913;-76
2021/11/30 00:06:09;;;;;;;;;;;-0.10;99.90;;;;;;5050944;28;19909;-76
2021/11/30 00:08:36;;;;;;;;;;;-0.10;99.90;;;;;;5050852;28;19917;-76
2021/11/30 00:11:06;;;;;;;;;;;-0.10;99.90;;;;;;5050687;28;19967;-76
2021/11/30 00:13:32;;;;;;;;;;;-0.10;99.90;;;;;;5050703;28;19909;-76
2021/11/30 00:15:58;;;;;;;;;;;-0.10;99.90;;;;;;5051070;28;20214;-76
2021/11/30 00:18:24;;;;;;;;;;;-0.10;99.90;;;;;;5050998;28;20162;-76
2021/11/30 00:20:50;;;;;;;;;;;-0.10;99.90;;;;;;5048371;28;19924;-76
2021/11/30 00:23:16;;;;;;;;;;;-0.10;99.90;;;;;;5048149;28;19909;-76
2021/11/30 00:25:42;;;;;;;;;;;-0.10;99.90;;;;;;5050802;28;19916;-76
2021/11/30 00:28:08;;;;;;;;;;;-0.10;99.90;;;;;;5050793;28;19924;-76
2021/11/30 00:30:34;;;;;;;;;;;-0.10;99.90;;;;;;5050642;28;19917;-76
2021/11/30 00:33:00;;;;;;;;;;;0.00;99.90;;;;;;5049036;28;19913;-76
2021/11/30 00:35:26;;;;;;;;;;;0.00;99.90;;;;;;5050529;28;19915;-76
2021/11/30 00:37:52;;;;;;;;;;;0.00;99.90;;;;;;5049540;28;19909;-77
2021/11/30 00:40:18;;;;;;;;;;;0.00;99.90;;;;;;5050812;28;19909;-76
2021/11/30 00:42:44;;;;;;;;;;;0.00;99.90;;;;;;5050436;28;20012;-76
2021/11/30 00:45:14;;;;;;;;;;;0.00;99.90;;;;;;5050360;28;20409;-76
2021/11/30 00:47:47;;;;;;;;;;;0.00;99.90;;;;;;5050844;28;19915;-76
2021/11/30 00:50:13;;;;;;;;;;;0.10;99.90;;;;;;5050694;28;19917;-76
2021/11/30 00:52:38;;;;;;;;;;;0.10;99.90;;;;;;5050296;28;19915;-76
2021/11/30 00:55:04;;;;;;;;;;;0.10;99.90;;;;;;5050206;28;19940;-76
2021/11/30 00:57:30;;;;;;;;;;;0.10;99.90;;;;;;5050622;28;20361;-76
2021/11/30 00:59:56;;;;;;;;;;;0.20;99.90;;;;;;5050569;28;19995;-76
2021/11/30 01:02:21;;;;;;;;;;;0.20;99.90;;;;;;5050431;28;19913;-76
2021/11/30 01:04:47;;;;;;;;;;;0.20;99.90;;;;;;5050056;28;19908;-77
2021/11/30 01:07:13;;;;;;;;;;;0.20;99.90;;;;;;5050655;28;20418;-76
2021/11/30 01:09:39;;;;;;;;;;;0.10;99.90;;;;;;5050493;28;20004;-76
2021/11/30 01:12:05;;;;;;;;;;;0.10;99.90;;;;;;5050300;28;19916;-76
2021/11/30 01:14:30;;;;;;;;;;;0.20;99.90;;;;;;5050122;28;20269;-76
2021/11/30 01:16:56;;;;;;;;;;;0.20;99.90;;;;;;5050340;28;19908;-76
2021/11/30 01:19:21;;;;;;;;;;;0.20;99.90;;;;;;5050269;28;19916;-76
2021/11/30 01:21:47;;;;;;;;;;;0.20;99.90;;;;;;5050586;28;19908;-76
2021/11/30 01:24:12;;;;;;;;;;;0.20;99.90;;;;;;5053137;28;19924;-76
2021/11/30 01:26:38;;;;;;;;;;;0.20;99.90;;;;;;5053823;28;20293;-77
2021/11/30 01:29:05;;;;;;;;;;;0.20;99.90;;;;;;5053359;28;21673;-78
2021/11/30 01:31:31;;;;;;;;;;;0.20;99.90;;;;;;5053912;28;19913;-78
2021/11/30 01:33:56;;;;;;;;;;;0.10;99.90;;;;;;5054080;28;19908;-77
2021/11/30 01:36:22;;;;;;;;;;;0.10;99.90;;;;;;5054313;28;19909;-77
2021/11/30 01:38:47;;;;;;;;;;;0.10;99.90;;;;;;5052957;28;19909;-77
2021/11/30 01:41:14;;;;;;;;;;;0.00;99.90;;;;;;5054373;28;19940;-78
2021/11/30 01:43:44;;;;;;;;;;;-0.10;99.90;;;;;;5052895;28;20008;-76
2021/11/30 01:46:13;;;;;;;;;;;-0.10;99.90;;;;;;5054829;28;19916;-77
2021/11/30 01:51:24;;;;;;;;;;;-0.10;99.90;;;;;;5050492;28;19920;-78
2021/11/30 01:53:50;;;;;;;;;;;0.00;99.90;;;;;;5053555;28;19909;-77
2021/11/30 01:56:15;;;;;;;;;;;0.00;99.90;;;;;;5053153;28;20026;-78
2021/11/30 01:58:42;;;;;;;;;;;0.00;99.90;;;;;;5052672;28;19999;-77
2021/11/30 02:01:08;;;;;;;;;;;0.00;99.90;;;;;;5053095;28;19913;-78
2021/11/30 02:03:34;;;;;;;;;;;0.10;99.90;;;;;;5054107;28;20420;-78
2021/11/30 02:05:59;;;;;;;;;;;0.10;99.90;;;;;;5055093;28;20019;-78
2021/11/30 02:08:25;;;;;;;;;;;0.10;99.90;;;;;;5053301;28;19908;-77
2021/11/30 02:10:51;;;;;;;;;;;0.10;99.90;;;;;;5052949;28;19986;-76
2021/11/30 02:13:16;;;;;;;;;;;0.20;99.90;;;;;;5054435;28;19909;-77
2021/11/30 02:15:47;;;;;;;;;;;0.20;99.90;;;;;;5054606;28;19916;-77
2021/11/30 02:18:14;;;;;;;;;;;0.10;99.90;;;;;;5047344;28;20004;-76
2021/11/30 02:20:41;;;;;;;;;;;0.10;99.90;;;;;;5054024;28;19963;-78
2021/11/30 02:23:14;;;;;;;;;;;0.00;99.90;;;;;;5053844;28;19909;-76
2021/11/30 02:25:40;;;;;;;;;;;0.00;99.90;;;;;;5053027;28;19909;-78
2021/11/30 02:28:06;;;;;;;;;;;0.10;99.90;;;;;;5055773;28;19917;-77
2021/11/30 02:30:31;;;;;;;;;;;0.10;99.90;;;;;;5057026;28;20247;-77
2021/11/30 02:32:56;;;;;;;;;;;-0.10;99.90;;;;;;5056893;28;20285;-78
2021/11/30 02:35:22;;;;;;;;;;;-0.20;99.90;;;;;;5055653;28;19916;-78
2021/11/30 02:37:52;;;;;;;;;;;-0.20;99.90;;;;;;5057067;28;20002;-76
2021/11/30 02:40:17;;;;;;;;;;;-0.20;99.90;;;;;;5050720;28;19913;-76
2021/11/30 02:42:43;;;;;;;;;;;-0.20;99.90;;;;;;5053289;28;19990;-78
2021/11/30 02:45:09;;;;;;;;;;;-0.20;99.90;;;;;;5046314;28;19912;-77
2021/11/30 02:47:35;;;;;;;;;;;-0.20;99.90;;;;;;5054195;28;20250;-78
2021/11/30 02:50:00;;;;;;;;;;;-0.20;99.90;;;;;;5053048;28;20384;-77
2021/11/30 02:52:28;;;;;;;;;;;-0.10;99.90;;;;;;5051389;28;20377;-77
2021/11/30 02:54:54;;;;;;;;;;;-0.10;99.90;;;;;;5052384;28;20418;-76
2021/11/30 02:57:20;;;;;;;;;;;0.00;99.90;;;;;;5054235;28;19995;-78
2021/11/30 02:59:47;;;;;;;;;;;0.00;99.90;;;;;;5052760;28;19988;-78
2021/11/30 03:02:20;;;;;;;;;;;-0.10;99.90;;;;;;5052913;28;19991;-77
2021/11/30 03:04:47;;;;;;;;;;;-0.10;99.90;;;;;;5053648;28;19909;-78
2021/11/30 03:07:21;;;;;;;;;;;-0.10;99.90;;;;;;5054114;28;19909;-78
2021/11/30 03:09:47;;;;;;;;;;;0.00;99.90;;;;;;5053015;28;19912;-78
2021/11/30 03:12:13;;;;;;;;;;;-0.10;99.90;;;;;;5054181;28;19917;-77
2021/11/30 03:14:38;;;;;;;;;;;-0.10;99.90;;;;;;5052910;28;19915;-77
2021/11/30 03:17:04;;;;;;;;;;;-0.10;99.90;;;;;;5047753;28;19919;-78
2021/11/30 03:19:30;;;;;;;;;;;0.00;99.90;;;;;;5052626;28;19909;-78
2021/11/30 03:21:56;;;;;;;;;;;0.00;99.90;;;;;;5048447;28;20054;-78
2021/11/30 03:24:22;;;;;;;;;;;-0.10;99.90;;;;;;5053787;28;20277;-78
2021/11/30 03:26:47;;;;;;;;;;;0.00;99.90;;;;;;5054224;28;19917;-77
2021/11/30 03:29:13;;;;;;;;;;;0.00;99.90;;;;;;5054433;28;20476;-77
2021/11/30 03:34:25;;;;;;;;;;;-0.10;99.90;;;;;;5054125;28;19996;-78
2021/11/30 03:36:52;;;;;;;;;;;0.00;99.90;;;;;;5054592;28;19909;-78
2021/11/30 03:39:19;;;;;;;;;;;-0.10;99.90;;;;;;5054569;28;19909;-77
2021/11/30 03:41:45;;;;;;;;;;;0.00;99.90;;;;;;5054631;28;19913;-78
2021/11/30 03:44:11;;;;;;;;;;;-0.10;99.90;;;;;;5053770;28;19909;-78
2021/11/30 03:46:36;;;;;;;;;;;-0.10;99.90;;;;;;5054313;28;19909;-78
2021/11/30 03:49:06;;;;;;;;;;;0.00;99.90;;;;;;5053917;28;19922;-77
2021/11/30 03:51:32;;;;;;;;;;;-0.10;99.90;;;;;;5053200;28;19916;-77
2021/11/30 03:53:57;;;;;;;;;;;0.00;99.90;;;;;;5050438;28;19936;-77
2021/11/30 03:56:23;;;;;;;;;;;0.00;99.90;;;;;;5053941;28;20392;-75
2021/11/30 03:58:49;;;;;;;;;;;0.00;99.90;;;;;;5054368;28;20004;-78
2021/11/30 04:01:14;;;;;;;;;;;0.00;99.90;;;;;;5054387;28;20366;-77
2021/11/30 04:03:41;;;;;;;;;;;0.00;99.90;;;;;;5054037;28;19909;-77
2021/11/30 04:06:07;;;;;;;;;;;-0.10;99.90;;;;;;5054089;28;20476;-77
2021/11/30 04:08:34;;;;;;;;;;;0.00;99.90;;;;;;5053973;28;19944;-78
2021/11/30 04:11:00;;;;;;;;;;;0.00;99.90;;;;;;5053799;28;19920;-78
2021/11/30 04:13:25;;;;;;;;;;;-0.10;99.90;;;;;;5054106;28;19909;-76
2021/11/30 04:15:51;;;;;;;;;;;-0.10;99.90;;;;;;5053716;28;20003;-77
2021/11/30 04:18:16;;;;;;;;;;;-0.10;99.90;;;;;;5053919;28;20015;-77
2021/11/30 04:20:42;;;;;;;;;;;-0.10;99.90;;;;;;5053679;28;19912;-77
2021/11/30 04:23:07;;;;;;;;;;;-0.10;99.90;;;;;;5052155;28;19909;-77
2021/11/30 04:25:34;;;;;;;;;;;-0.10;99.90;;;;;;5047067;28;19917;-77
2021/11/30 04:27:59;;;;;;;;;;;-0.10;99.90;;;;;;5052366;28;19917;-77
2021/11/30 04:30:25;;;;;;;;;;;-0.10;99.90;;;;;;5053118;28;19919;-77
2021/11/30 04:32:52;;;;;;;;;;;-0.10;99.90;;;;;;5051801;28;20333;-76
2021/11/30 04:35:18;;;;;;;;;;;0.00;99.90;;;;;;5052985;28;19979;-77
2021/11/30 04:37:43;;;;;;;;;;;-0.10;99.90;;;;;;5053166;28;20005;-77
2021/11/30 04:40:10;;;;;;;;;;;-0.10;99.90;;;;;;5052935;28;19909;-77
2021/11/30 04:42:36;;;;;;;;;;;-0.10;99.90;;;;;;5052745;28;19909;-77
2021/11/30 04:45:12;;;;;;;;;;;-0.10;99.90;;;;;;5052630;28;19973;-77
2021/11/30 04:47:39;;;;;;;;;;;-0.20;99.90;;;;;;5051967;28;19919;-77
2021/11/30 04:50:10;;;;;;;;;;;-0.20;99.90;;;;;;5053931;28;19909;-77
2021/11/30 04:52:37;;;;;;;;;;;-0.30;99.90;;;;;;5051837;28;19916;-77
2021/11/30 04:55:03;;;;;;;;;;;-0.30;99.90;;;;;;5050951;28;19952;-77
2021/11/30 04:57:29;;;;;;;;;;;-0.30;99.90;;;;;;5055964;28;19912;-76
2021/11/30 04:59:54;;;;;;;;;;;-0.30;99.90;;;;;;5056777;28;19916;-77
2021/11/30 05:02:20;;;;;;;;;;;-0.30;99.90;;;;;;5055769;28;19909;-77
2021/11/30 05:04:47;;;;;;;;;;;-0.30;99.90;;;;;;5058014;28;19908;-77
2021/11/30 05:07:14;;;;;;;;;;;-0.30;99.90;;;;;;5057832;28;19913;-74
2021/11/30 05:09:40;;;;;;;;;;;-0.20;99.90;;;;;;5056745;28;19909;-77
2021/11/30 05:12:05;;;;;;;;;;;-0.20;99.90;;;;;;5057344;28;19942;-76
2021/11/30 05:14:31;;;;;;;;;;;-0.20;99.90;;;;;;5055942;28;19909;-75
2021/11/30 05:16:56;;;;;;;;;;;-0.20;99.90;;;;;;5057638;28;20350;-77
2021/11/30 05:19:22;;;;;;;;;;;-0.20;99.90;;;;;;5055937;28;19909;-77
2021/11/30 05:21:47;;;;;;;;;;;-0.20;99.90;;;;;;5057247;28;19909;-75
2021/11/30 05:24:15;;;;;;;;;;;-0.20;99.90;;;;;;5054141;28;19913;-77
2021/11/30 05:26:41;;;;;;;;;;;-0.20;99.90;;;;;;5056088;28;19952;-77
2021/11/30 05:29:06;;;;;;;;;;;-0.20;99.90;;;;;;5056279;28;19913;-77
2021/11/30 05:31:32;;;;;;;;;;;-0.20;99.90;;;;;;5056604;28;19912;-77
2021/11/30 05:33:59;;;;;;;;;;;-0.30;99.90;;;;;;5056860;28;20373;-77
2021/11/30 05:36:25;;;;;;;;;;;-0.30;99.90;;;;;;5056911;28;19966;-78
2021/11/30 05:38:51;;;;;;;;;;;-0.30;99.90;;;;;;5056302;28;19909;-77
2021/11/30 05:41:16;;;;;;;;;;;-0.30;99.90;;;;;;5057902;28;19916;-78
2021/11/30 05:43:42;;;;;;;;;;;-0.30;99.90;;;;;;5055698;28;19931;-77
2021/11/30 05:46:07;;;;;;;;;;;-0.40;99.90;;;;;;5056574;28;20014;-77
2021/11/30 05:48:33;;;;;;;;;;;-0.30;99.90;;;;;;5056668;28;20242;-77
2021/11/30 05:50:59;;;;;;;;;;;-0.30;99.90;;;;;;5055363;28;19920;-77
2021/11/30 05:53:25;;;;;;;;;;;-0.40;99.90;;;;;;5049404;28;19909;-77
2021/11/30 05:56:01;;;;;;;;;;;-0.40;99.90;;;;;;5054904;28;19913;-77
2021/11/30 05:58:27;;;;;;;;;;;-0.40;99.90;;;;;;5050792;28;19909;-79
2021/11/30 06:00:55;;;;;;;;;;;-0.40;99.90;;;;;;5054851;28;19995;-77
2021/11/30 06:05:49;;;;;;;;;;;-0.40;99.90;;;;;;5056186;28;19908;-77
2021/11/30 06:08:14;;;;;;;;;;;-0.40;99.90;;;;;;5055697;28;19909;-77
2021/11/30 06:10:40;;;;;;;;;;;-0.30;99.90;;;;;;5057312;28;19948;-78
2021/11/30 06:13:05;;;;;;;;;;;-0.30;99.90;;;;;;5056327;28;19908;-75
2021/11/30 06:15:32;;;;;;;;;;;-0.30;99.90;;;;;;5049628;28;19909;-78
2021/11/30 06:17:57;;;;;;;;;;;-0.30;99.90;;;;;;5056939;28;19915;-77
2021/11/30 06:20:23;;;;;;;;;;;-0.20;99.90;;;;;;5055636;28;20003;-78
2021/11/30 06:22:49;;;;;;;;;;;-0.20;99.90;;;;;;5056862;28;19909;-77
2021/11/30 06:25:14;;;;;;;;;;;-0.20;99.90;;;;;;5053538;28;19915;-78
2021/11/30 06:27:41;;;;;;;;;;;-0.20;99.90;;;;;;5054807;28;19983;-78
2021/11/30 06:30:07;;;;;;;;;;;-0.30;99.90;;;;;;5056712;28;19908;-77
2021/11/30 06:32:32;;;;;;;;;;;-0.30;99.90;;;;;;5057098;28;19908;-79
2021/11/30 06:34:58;;;;;;;;;;;-0.40;99.90;;;;;;5054785;28;19940;-79
2021/11/30 06:37:23;;;;;;;;;;;-0.30;99.90;;;;;;5057336;28;20397;-77
2021/11/30 06:39:52;;;;;;;;;;;-0.40;99.90;;;;;;5056450;28;19908;-79
2021/11/30 06:42:17;;;;;;;;;;;-0.40;99.90;;;;;;5056434;28;19995;-77
2021/11/30 06:44:43;;;;;;;;;;;-0.40;99.90;;;;;;5056892;28;19956;-78
2021/11/30 06:47:08;;;;;;;;;;;-0.40;99.90;;;;;;5057344;28;19916;-79
2021/11/30 06:49:34;;;;;;;;;;;-0.40;99.90;;;;;;5057508;28;19976;-78
2021/11/30 06:51:59;;;;;;;;;;;-0.40;99.90;;;;;;5057081;28;19940;-76
2021/11/30 06:54:25;;;;;;;;;;;-0.40;99.90;;;;;;5053557;28;19924;-79
2021/11/30 06:56:51;;;;;;;;;;;-0.40;99.90;;;;;;5055173;28;19928;-79
2021/11/30 06:59:16;;;;;;;;;;;-0.40;99.90;;;;;;5057068;28;19967;-78
2021/11/30 07:01:44;;;;;;;;;;;-0.40;99.90;;;;;;5057176;28;20488;-79
2021/11/30 07:04:09;;;;;;;;;;;-0.40;99.90;;;;;;5056405;28;19909;-78
2021/11/30 07:09:33;;;;;;;;;;;-0.30;99.90;;;;;;5057003;28;19919;-78
2021/11/30 07:12:08;;;;;;;;;;;-0.30;99.90;;;;;;5055230;28;19919;-78
2021/11/30 07:14:34;;;;;;;;;;;-0.30;99.90;;;;;;5054875;28;19913;-77
2021/11/30 07:17:00;;;;;;;;;;;-0.30;99.90;;;;;;5054947;28;19908;-79
2021/11/30 07:19:25;;;;;;;;;;;-0.30;99.90;;;;;;5055693;28;20332;-77
2021/11/30 07:21:51;;;;;;;;;;;-0.30;99.90;;;;;;5053025;28;19909;-77
2021/11/30 07:24:16;;;;;;;;;;;-0.30;99.90;;;;;;5045720;28;19916;-77
2021/11/30 07:26:42;;;;;;;;;;;-0.30;99.90;;;;;;5054521;28;19917;-78
2021/11/30 07:29:07;;;;;;;;;;;-0.20;99.90;;;;;;5053903;28;19913;-78
2021/11/30 07:31:34;;;;;;;;;;;-0.20;99.90;;;;;;5054580;28;19919;-77
2021/11/30 07:34:00;;;;;;;;;;;-0.10;99.90;;;;;;5052887;28;19909;-78
2021/11/30 07:36:26;;;;;;;;;;;-0.10;99.90;;;;;;5055313;28;19909;-78
2021/11/30 07:38:52;;;;;;;;;;;-0.10;99.90;;;;;;5051677;28;19963;-78
2021/11/30 07:41:18;;;;;;;;;;;-0.10;99.90;;;;;;5054639;28;19915;-78
2021/11/30 07:43:44;;;;;;;;;;;0.00;99.90;;;;;;5054613;28;19917;-78
2021/11/30 07:46:09;;;;;;;;;;;0.00;99.90;;;;;;5053534;28;20258;-78
2021/11/30 07:48:35;;;;;;;;;;;0.00;99.90;;;;;;5054494;28;19963;-75
2021/11/30 07:51:01;;;;;;;;;;;0.10;99.90;;;;;;5053700;28;19912;-78
2021/11/30 07:53:27;;;;;;;;;;;0.10;99.90;;;;;;5054081;28;19939;-76
2021/11/30 07:55:53;;;;;;;;;;;0.10;99.90;;;;;;5051644;28;20374;-78
2021/11/30 07:58:19;;;;;;;;;;;0.10;99.90;;;;;;5055835;28;19959;-78
2021/11/30 08:00:49;;;;;;;;;;;0.20;99.90;;;;;;5054786;28;19913;-76
2021/11/30 08:03:15;;;;;;;;;;;0.20;99.90;;;;;;5055833;28;19909;-78
2021/11/30 08:05:41;;;;;;;;;;;0.20;99.90;;;;;;5056674;28;19909;-78
2021/11/30 08:08:06;;;;;;;;;;;0.20;99.90;;;;;;5055070;28;19909;-78
2021/11/30 08:10:33;;;;;;;;;;;0.20;99.90;;;;;;5062352;28;19913;-77
2021/11/30 08:12:58;;;;;;;;;;;0.20;99.90;;;;;;5065007;28;20495;-78
2021/11/30 08:15:24;;;;;;;;;;;0.20;99.90;;;;;;5053202;28;19928;-77
2021/11/30 08:17:49;;;;;;;;;;;0.20;99.90;;;;;;5053062;28;20503;-77
2021/11/30 08:20:15;;;;;;;;;;;0.30;99.90;;;;;;5053131;28;19909;-77
2021/11/30 08:22:41;;;;;;;;;;;0.30;99.90;;;;;;5052455;28;20258;-77
2021/11/30 08:25:07;;;;;;;;;;;0.30;99.90;;;;;;5046341;28;19909;-77
2021/11/30 08:27:33;;;;;;;;;;;0.30;99.90;;;;;;5052936;28;19917;-76
2021/11/30 08:29:59;;;;;;;;;;;0.40;99.90;;;;;;5053484;28;19931;-77
2021/11/30 08:32:25;;;;;;;;;;;0.40;99.90;;;;;;5057060;28;19917;-77
2021/11/30 08:34:51;;;;;;;;;;;0.50;99.90;;;;;;5056408;28;20327;-77
2021/11/30 08:37:17;;;;;;;;;;;0.50;99.90;;;;;;5056513;28;19909;-77
2021/11/30 08:39:43;;;;;;;;;;;0.60;99.90;;;;;;5053403;28;19915;-77
2021/11/30 08:42:09;;;;;;;;;;;0.60;99.90;;;;;;5055574;28;19908;-77
2021/11/30 08:44:35;;;;;;;;;;;0.60;99.90;;;;;;5053941;28;19909;-77
2021/11/30 08:47:01;;;;;;;;;;;0.60;99.90;;;;;;5056382;28;19909;-77
2021/11/30 08:49:26;;;;;;;;;;;0.60;99.90;;;;;;5055398;28;20358;-76
2021/11/30 08:51:53;;;;;;;;;;;0.70;99.90;;;;;;5055623;28;19932;-77
2021/11/30 08:54:18;;;;;;;;;;;0.80;99.90;;;;;;5041843;28;19959;-77
2021/11/30 08:56:44;;;;;;;;;;;0.80;99.90;;;;;;5048408;28;19913;-77
2021/11/30 08:59:11;;;;;;;;;;;0.80;99.90;;;;;;5054524;28;19931;-77
2021/11/30 09:01:37;;;;;;;;;;;0.70;99.90;;;;;;5055348;28;19909;-76
2021/11/30 09:04:03;;;;;;;;;;;0.80;99.90;;;;;;5050164;28;19913;-77
2021/11/30 09:06:28;;;;;;;;;;;0.80;99.90;;;;;;5057199;28;20353;-77
2021/11/30 09:08:54;;;;;;;;;;;0.80;99.90;;;;;;5057140;28;20156;-77
2021/11/30 09:11:20;;;;;;;;;;;0.90;99.90;;;;;;5055309;28;19920;-77
2021/11/30 09:13:46;;;;;;;;;;;0.80;99.90;;;;;;5054997;28;20007;-77
2021/11/30 09:16:12;;;;;;;;;;;0.90;99.90;;;;;;5055141;28;19909;-76
2021/11/30 09:18:37;;;;;;;;;;;1.00;99.90;;;;;;5054646;28;19962;-77
2021/11/30 09:21:03;;;;;;;;;;;1.00;99.90;;;;;;5055533;28;19908;-77
2021/11/30 09:23:28;;;;;;;;;;;1.00;99.90;;;;;;5054528;28;19912;-77
2021/11/30 09:25:55;;;;;;;;;;;1.00;99.90;;;;;;5052482;28;19955;-76
2021/11/30 09:28:21;;;;;;;;;;;1.10;99.90;;;;;;5053889;28;20361;-77
2021/11/30 09:30:47;;;;;;;;;;;1.00;99.90;;;;;;5053685;28;19920;-77
2021/11/30 09:33:13;;;;;;;;;;;1.00;99.90;;;;;;5052314;28;19913;-77
2021/11/30 09:35:38;;;;;;;;;;;0.90;99.90;;;;;;5053973;28;19909;-77
2021/11/30 09:38:04;;;;;;;;;;;1.00;99.90;;;;;;5053305;28;19928;-77
2021/11/30 09:40:30;;;;;;;;;;;1.00;99.90;;;;;;5046074;28;19912;-76
2021/11/30 09:42:56;;;;;;;;;;;1.10;99.90;;;;;;5053436;28;19920;-76
2021/11/30 09:45:24;;;;;;;;;;;1.10;99.90;;;;;;5055125;28;19909;-77
2021/11/30 09:47:50;;;;;;;;;;;1.20;99.90;;;;;;5054184;28;20369;-77
2021/11/30 09:50:17;;;;;;;;;;;1.30;99.90;;;;;;5052190;28;19959;-77
2021/11/30 09:52:43;;;;;;;;;;;1.40;99.90;;;;;;5053565;28;19909;-77
2021/11/30 09:55:12;;;;;;;;;;;1.40;99.90;;;;;;5051070;28;19920;-77
2021/11/30 09:57:37;;;;;;;;;;;1.50;99.90;;;;;;5057274;28;19954;-78
2021/11/30 10:00:04;;;;;;;;;;;1.40;99.90;;;;;;5056775;28;20317;-77
2021/11/30 10:02:29;;;;;;;;;;;1.30;99.90;;;;;;5057273;28;19951;-78
2021/11/30 10:04:55;;;;;;;;;;;1.30;99.90;;;;;;5056765;28;19912;-77
2021/11/30 10:07:40;;;;;;;;;;;1.30;99.90;;;;;;5056324;28;19908;-77
2021/11/30 10:10:11;;;;;;;;;;;1.30;99.90;;;;;;5055325;28;19915;-77
2021/11/30 10:12:37;;;;;;;;;;;1.30;99.90;;;;;;5055413;28;20178;-77
2021/11/30 10:15:06;;;;;;;;;;;1.30;99.90;;;;;;5054839;28;20272;-76
2021/11/30 10:17:34;;;;;;;;;;;1.40;99.90;;;;;;5057043;28;20015;-77
2021/11/30 10:20:07;;;;;;;;;;;1.40;99.90;;;;;;5057393;28;20381;-78
2021/11/30 10:22:36;;;;;;;;;;;1.40;99.90;;;;;;5056276;28;19932;-78
2021/11/30 10:25:12;;;;;;;;;;;1.40;99.90;;;;;;5055256;28;19955;-78
2021/11/30 10:27:42;;;;;;;;;;;1.40;99.90;;;;;;5054802;28;19924;-79
2021/11/30 10:30:14;;;;;;;;;;;1.30;99.90;;;;;;5050650;28;20365;-78
2021/11/30 10:32:43;;;;;;;;;;;1.30;99.90;;;;;;5057657;28;20292;-78
2021/11/30 10:35:09;;;;;;;;;;;1.20;99.90;;;;;;5056060;28;19909;-79
2021/11/30 10:37:38;;;;;;;;;;;1.30;99.90;;;;;;5055393;28;19913;-78
2021/11/30 10:40:11;;;;;;;;;;;1.20;99.90;;;;;;5050431;28;20420;-78
2021/11/30 10:42:44;;;;;;;;;;;1.20;99.90;;;;;;5056410;28;20095;-78
2021/11/30 10:45:10;;;;;;;;;;;1.20;99.90;;;;;;5057246;28;20316;-78
2021/11/30 10:47:36;;;;;;;;;;;1.20;99.90;;;;;;5057218;28;19908;-78
2021/11/30 10:50:11;;;;;;;;;;;1.20;99.90;;;;;;5055026;28;19920;-78
2021/11/30 10:52:40;;;;;;;;;;;1.20;99.90;;;;;;5055656;28;19913;-79
2021/11/30 10:55:10;;;;;;;;;;;1.30;99.90;;;;;;5051294;28;19948;-77
2021/11/30 10:57:37;;;;;;;;;;;1.20;99.90;;;;;;5056617;28;19915;-78
2021/11/30 11:00:10;;;;;;;;;;;1.20;99.90;;;;;;5057303;28;19909;-79
2021/11/30 11:03:06;;;;;;;;;;;1.20;99.90;;;;;;5050820;28;19944;-78
2021/11/30 11:05:32;;;;;;;;;;;1.20;99.90;;;;;;5066538;28;19916;-79
2021/11/30 11:07:57;;;;;;;;;;;1.20;99.90;;;;;;5055524;28;19962;-76
2021/11/30 11:10:25;;;;;;;;;;;1.10;99.90;;;;;;5058517;28;19920;-79
2021/11/30 11:12:51;;;;;;;;;;;1.20;99.90;;;;;;5054551;28;19944;-79
2021/11/30 11:15:35;;;;;;;;;;;1.20;99.90;;;;;;5055634;28;19942;-79
2021/11/30 11:18:16;;;;;;;;;;;1.10;99.90;;;;;;5054066;28;19909;-78
2021/11/30 11:20:42;;;;;;;;;;;1.20;99.90;;;;;;5056162;28;19909;-79
2021/11/30 11:23:07;;;;;;;;;;;1.20;99.90;;;;;;5055492;28;19908;-79
2021/11/30 11:25:33;;;;;;;;;;;1.10;99.90;;;;;;5051317;28;19909;-79
2021/11/30 11:27:59;;;;;;;;;;;1.10;99.90;;;;;;5055675;28;20332;-78
2021/11/30 11:30:24;;;;;;;;;;;1.10;99.90;;;;;;5054206;28;20335;-77
2021/11/30 11:32:50;;;;;;;;;;;1.10;99.90;;;;;;5055296;28;19960;-79
2021/11/30 11:35:16;;;;;;;;;;;1.10;99.90;;;;;;5054138;28;20281;-79
2021/11/30 11:37:44;;;;;;;;;;;1.10;99.90;;;;;;5056727;28;19916;-79
2021/11/30 11:40:10;;;;;;;;;;;1.00;99.90;;;;;;5052497;28;19909;-79
2021/11/30 11:42:36;;;;;;;;;;;1.00;99.90;;;;;;5054120;28;19909;-79
2021/11/30 11:45:03;;;;;;;;;;;1.00;99.90;;;;;;5054371;28;20054;-79
2021/11/30 11:47:32;;;;;;;;;;;1.10;99.90;;;;;;5054951;28;19908;-79
2021/11/30 11:50:09;;;;;;;;;;;1.10;99.90;;;;;;5057796;28;20008;-79
2021/11/30 11:52:36;;;;;;;;;;;1.10;99.90;;;;;;5054465;28;19917;-78
2021/11/30 11:55:02;;;;;;;;;;;1.10;99.90;;;;;;5054103;28;19912;-79
2021/11/30 11:57:28;;;;;;;;;;;1.10;99.90;;;;;;5056094;28;19954;-79
2021/11/30 11:59:53;;;;;;;;;;;1.10;99.90;;;;;;5056807;28;19923;-79
2021/11/30 12:02:28;;;;;;;;;;;1.00;99.90;;;;;;5057402;28;19909;-77
2021/11/30 12:04:56;;;;;;;;;;;1.00;99.90;;;;;;5056483;28;19908;-80
2021/11/30 12:07:23;;;;;;;;;;;1.00;99.90;;;;;;5057274;28;19995;-78
2021/11/30 12:09:49;;;;;;;;;;;1.10;99.90;;;;;;5057843;28;19909;-80
2021/11/30 12:12:22;;;;;;;;;;;1.00;99.90;;;;;;5050311;28;20270;-79
2021/11/30 12:14:50;;;;;;;;;;;1.00;99.90;;;;;;5056876;28;19975;-79
2021/11/30 12:17:21;;;;;;;;;;;1.00;99.90;;;;;;5059009;28;19931;-77
2021/11/30 12:19:56;;;;;;;;;;;1.00;99.90;;;;;;5057668;28;19944;-80
2021/11/30 12:22:40;;;;;;;;;;;1.00;99.90;;;;;;5067613;28;19909;-78
2021/11/30 12:25:07;;;;;;;;;;;1.10;99.90;;;;;;5055132;28;20362;-79
2021/11/30 12:27:35;;;;;;;;;;;1.10;99.90;;;;;;5057449;28;20266;-80
2021/11/30 12:30:00;;;;;;;;;;;1.00;99.90;;;;;;5055677;28;19909;-79
2021/11/30 12:32:31;;;;;;;;;;;1.00;99.90;;;;;;5055563;28;20373;-80
2021/11/30 12:34:58;;;;;;;;;;;0.90;99.90;;;;;;5055774;28;19920;-79
2021/11/30 12:37:28;;;;;;;;;;;1.00;99.90;;;;;;5057915;28;19909;-79
2021/11/30 12:40:14;;;;;;;;;;;0.90;99.90;;;;;;5047340;28;19913;-79
2021/11/30 12:42:40;;;;;;;;;;;1.00;99.90;;;;;;5046332;28;19913;-78
2021/11/30 12:45:07;;;;;;;;;;;1.00;99.90;;;;;;5052004;28;19924;-80
2021/11/30 12:47:32;;;;;;;;;;;1.00;99.90;;;;;;5052145;28;19962;-80
2021/11/30 12:49:58;;;;;;;;;;;1.00;99.90;;;;;;5053249;28;19909;-78
2021/11/30 12:52:26;;;;;;;;;;;0.90;99.90;;;;;;5046461;28;19917;-80
2021/11/30 12:54:59;;;;;;;;;;;1.00;99.90;;;;;;5047783;28;19909;-80
2021/11/30 12:57:33;;;;;;;;;;;1.00;99.90;;;;;;5050433;28;19909;-79
2021/11/30 13:00:10;;;;;;;;;;;1.00;99.90;;;;;;5070829;28;19932;-80
2021/11/30 13:02:38;;;;;;;;;;;1.00;99.90;;;;;;5047080;28;19975;-79
2021/11/30 13:05:10;;;;;;;;;;;0.90;99.90;;;;;;5057820;28;19948;-79
2021/11/30 13:07:48;;;;;;;;;;;1.00;99.90;;;;;;5055497;28;20316;-79
2021/11/30 13:10:17;;;;;;;;;;;1.00;99.90;;;;;;5055894;28;20385;-80
2021/11/30 13:12:43;;;;;;;;;;;1.00;99.90;;;;;;5055797;28;19919;-80
2021/11/30 13:15:09;;;;;;;;;;;1.00;99.90;;;;;;5057673;28;19909;-78
2021/11/30 13:17:35;;;;;;;;;;;1.00;99.90;;;;;;5058114;28;20449;-80
2021/11/30 13:20:02;;;;;;;;;;;1.00;99.90;;;;;;5060413;28;19956;-81
2021/11/30 13:22:28;;;;;;;;;;;1.10;99.90;;;;;;5060578;28;20281;-81
2021/11/30 13:24:55;;;;;;;;;;;1.10;99.90;;;;;;5060388;28;19919;-81
2021/11/30 13:27:22;;;;;;;;;;;1.10;99.90;;;;;;5059210;28;19917;-81
2021/11/30 13:29:52;;;;;;;;;;;1.00;99.90;;;;;;5060713;28;19909;-81
2021/11/30 13:32:21;;;;;;;;;;;1.00;99.90;;;;;;5058768;28;19913;-78
2021/11/30 13:35:03;;;;;;;;;;;1.00;99.90;;;;;;5060204;28;20142;-80
2021/11/30 13:37:29;;;;;;;;;;;1.00;99.90;;;;;;5059802;28;19909;-81
2021/11/30 13:39:54;;;;;;;;;;;1.00;99.90;;;;;;5049435;28;19975;-81
2021/11/30 13:42:19;;;;;;;;;;;0.90;99.90;;;;;;5058832;28;19909;-78
2021/11/30 13:44:48;;;;;;;;;;;1.00;99.90;;;;;;5059435;28;19909;-81
2021/11/30 13:47:13;;;;;;;;;;;1.00;99.90;;;;;;5058427;28;19932;-78
2021/11/30 13:49:40;;;;;;;;;;;1.00;99.90;;;;;;5059207;28;19909;-81
2021/11/30 13:52:17;;;;;;;;;;;1.00;99.90;;;;;;5057171;28;19913;-81
2021/11/30 13:54:48;;;;;;;;;;;1.00;99.90;;;;;;5054916;28;19943;-82
2021/11/30 13:57:17;;;;;;;;;;;1.00;99.90;;;;;;5046785;28;19913;-81
2021/11/30 13:59:45;;;;;;;;;;;1.00;99.90;;;;;;5057900;28;19945;-81
2021/11/30 14:02:11;;;;;;;;;;;1.00;99.90;;;;;;5056431;28;19909;-81
2021/11/30 14:04:38;;;;;;;;;;;1.00;99.90;;;;;;5057629;28;19955;-82
2021/11/30 14:07:04;;;;;;;;;;;1.00;99.90;;;;;;5058457;28;20096;-82
2021/11/30 14:09:31;;;;;;;;;;;1.10;99.90;;;;;;5057340;28;20178;-82
2021/11/30 14:12:05;;;;;;;;;;;1.10;99.90;;;;;;5051181;28;19920;-81
2021/11/30 14:14:31;;;;;;;;;;;1.10;99.90;;;;;;5050995;28;20039;-81
2021/11/30 14:16:58;;;;;;;;;;;1.10;99.90;;;;;;5059269;28;19940;-80
2021/11/30 14:19:37;;;;;;;;;;;1.10;99.90;;;;;;5057197;28;19935;-82
2021/11/30 14:22:04;;;;;;;;;;;1.10;99.90;;;;;;5056481;28;19908;-79
2021/11/30 14:24:31;;;;;;;;;;;1.10;99.90;;;;;;5050884;28;20274;-81
2021/11/30 14:27:12;;;;;;;;;;;1.10;99.90;;;;;;5051906;28;19933;-82
2021/11/30 14:29:39;;;;;;;;;;;1.10;99.90;;;;;;5058199;28;19948;-82
2021/11/30 14:32:14;;;;;;;;;;;1.20;99.90;;;;;;5055759;28;20366;-82
2021/11/30 14:34:41;;;;;;;;;;;1.10;99.90;;;;;;5056682;28;19916;-82
2021/11/30 14:37:15;;;;;;;;;;;1.20;99.90;;;;;;5054821;28;20213;-82